createdAt,value
2018-04-10T00:01:13.275Z,8.85
2018-04-10T00:03:40.717Z,9.60
2018-04-10T00:06:08.934Z,9.00
2018-04-10T00:08:36.388Z,9.83
2018-04-10T00:11:03.814Z,9.17
2018-04-10T00:13:32.039Z,9.33
2018-04-10T00:15:59.479Z,10.27
2018-04-10T00:18:26.927Z,9.50
2018-04-10T00:20:54.411Z,9.27
2018-04-10T00:23:22.630Z,9.37
2018-04-10T00:25:50.059Z,9.93
2018-04-10T00:28:17.517Z,9.83
2018-04-10T00:30:44.947Z,9.40
2018-04-10T00:33:12.406Z,9.30
2018-04-10T00:35:39.855Z,8.88
2018-04-10T00:38:07.291Z,8.67
2018-04-10T00:40:34.747Z,8.50
2018-04-10T00:43:02.184Z,8.13
2018-04-10T00:45:30.387Z,9.60
2018-04-10T00:47:57.826Z,8.00
2018-04-10T00:50:25.251Z,7.60
2018-04-10T00:52:52.682Z,7.73
2018-04-10T00:55:20.135Z,7.53
2018-04-10T00:57:47.554Z,9.00
2018-04-10T01:00:15.016Z,8.90
2018-04-10T01:02:43.211Z,9.10
2018-04-10T01:05:11.426Z,9.40
2018-04-10T01:07:40.370Z,9.33
2018-04-10T01:10:07.814Z,8.93
2018-04-10T01:12:36.029Z,8.20
2018-04-10T01:15:03.477Z,8.60
2018-04-10T01:17:30.907Z,8.07
2018-04-10T01:22:51.746Z,7.83
2018-04-10T01:25:19.202Z,8.63
2018-04-10T01:27:46.632Z,9.30
2018-04-10T01:30:14.845Z,9.00
2018-04-10T01:32:42.278Z,9.23
2018-04-10T01:35:09.752Z,7.90
2018-04-10T01:37:37.210Z,9.13
2018-04-10T01:40:04.643Z,8.57
2018-04-10T01:42:32.079Z,8.50
2018-04-10T01:45:00.306Z,11.03
2018-04-10T01:47:28.495Z,9.70
2018-04-10T01:49:55.929Z,9.30
2018-04-10T01:52:23.386Z,9.63
2018-04-10T01:54:50.819Z,10.30
2018-04-10T01:57:18.255Z,9.40
2018-04-10T01:59:46.475Z,8.90
2018-04-10T02:02:13.933Z,8.52
2018-04-10T02:04:41.363Z,9.00
2018-04-10T02:07:08.822Z,8.80
2018-04-10T02:09:37.032Z,9.23
2018-04-10T02:12:04.475Z,9.00
2018-04-10T02:14:31.914Z,9.60
2018-04-10T02:16:59.373Z,8.63
2018-04-10T02:19:26.820Z,8.40
2018-04-10T02:21:55.020Z,9.17
2018-04-10T02:24:22.463Z,8.94
2018-04-10T02:26:49.903Z,10.10
2018-04-10T02:29:18.116Z,8.80
2018-04-10T02:31:45.571Z,8.93
2018-04-10T02:34:13.016Z,8.97
2018-04-10T02:36:40.455Z,8.98
2018-04-10T02:39:08.666Z,9.23
2018-04-10T02:41:36.108Z,9.43
2018-04-10T02:44:03.711Z,9.93
2018-04-10T02:46:31.153Z,10.07
2018-04-10T02:48:58.594Z,10.40
2018-04-10T02:51:26.065Z,9.40
2018-04-10T02:53:53.527Z,9.90
2018-04-10T02:56:20.967Z,10.70
2018-04-10T02:58:48.406Z,10.68
2018-04-10T03:01:15.834Z,9.67
2018-04-10T03:03:44.047Z,10.17
2018-04-10T03:06:11.472Z,9.90
2018-04-10T03:08:39.694Z,10.30
2018-04-10T03:11:07.128Z,10.27
2018-04-10T03:13:34.566Z,11.23
2018-04-10T03:16:02.795Z,11.07
2018-04-10T03:18:30.237Z,9.83
2018-04-10T03:20:57.691Z,10.50
2018-04-10T03:23:25.157Z,10.23
2018-04-10T03:25:52.618Z,11.87
2018-04-10T03:28:20.056Z,10.10
2018-04-10T03:30:47.504Z,10.70
2018-04-10T03:33:14.967Z,11.20
2018-04-10T03:35:42.383Z,10.60
2018-04-10T03:38:09.844Z,11.10
2018-04-10T03:40:37.288Z,11.57
2018-04-10T03:43:05.496Z,11.47
2018-04-10T03:45:32.923Z,10.63
2018-04-10T03:48:00.360Z,12.20
2018-04-10T03:50:27.811Z,11.60
2018-04-10T03:52:55.278Z,10.87
2018-04-10T03:55:22.715Z,11.80
2018-04-10T03:57:50.164Z,11.30
2018-04-10T04:00:17.623Z,11.90
2018-04-10T04:02:45.090Z,11.53
2018-04-10T04:05:12.679Z,11.43
2018-04-10T04:07:40.169Z,11.20
2018-04-10T04:10:07.592Z,11.20
2018-04-10T04:12:35.036Z,10.77
2018-04-10T04:15:02.490Z,10.83
2018-04-10T04:17:33.778Z,10.60
2018-04-10T04:20:13.772Z,12.83
2018-04-10T04:22:41.215Z,11.90
2018-04-10T04:25:08.668Z,12.13
2018-04-10T04:27:36.108Z,11.97
2018-04-10T04:30:04.323Z,11.52
2018-04-10T04:32:31.781Z,11.47
2018-04-10T04:35:00.343Z,12.60
2018-04-10T04:37:27.790Z,13.38
2018-04-10T04:39:55.234Z,12.13
2018-04-10T04:42:23.435Z,12.40
2018-04-10T04:44:50.889Z,12.50
2018-04-10T04:49:52.485Z,11.27
2018-04-10T04:52:19.937Z,11.10
2018-04-10T04:54:47.387Z,11.30
2018-04-10T04:57:14.838Z,11.70
2018-04-10T04:59:43.059Z,10.35
2018-04-10T05:02:10.514Z,11.90
2018-04-10T05:04:37.947Z,11.27
2018-04-10T05:07:05.418Z,10.83
2018-04-10T05:09:32.855Z,10.67
2018-04-10T05:12:00.309Z,10.83
2018-04-10T05:14:27.778Z,11.63
2018-04-10T05:17:07.919Z,11.80
2018-04-10T05:19:35.355Z,11.50
2018-04-10T05:22:02.798Z,10.50
2018-04-10T05:24:30.999Z,9.37
2018-04-10T05:26:58.451Z,10.93
2018-04-10T05:29:25.891Z,10.10
2018-04-10T05:31:53.353Z,11.10
2018-04-10T05:34:20.779Z,10.30
2018-04-10T05:36:49.002Z,10.03
2018-04-10T05:39:16.440Z,10.17
2018-04-10T05:41:43.867Z,9.73
2018-04-10T05:44:12.088Z,9.52
2018-04-10T05:46:39.532Z,9.50
2018-04-10T05:49:06.971Z,11.20
2018-04-10T05:51:35.185Z,8.43
2018-04-10T05:54:02.632Z,9.85
2018-04-10T05:56:30.097Z,9.87
2018-04-10T05:58:57.544Z,10.43
2018-04-10T06:01:24.978Z,10.47
2018-04-10T06:03:52.418Z,11.20
2018-04-10T06:06:20.626Z,9.63
2018-04-10T06:08:48.063Z,9.40
2018-04-10T06:11:16.282Z,9.30
2018-04-10T06:13:43.754Z,10.60
2018-04-10T06:16:11.190Z,9.47
2018-04-10T06:18:38.741Z,9.70
2018-04-10T06:21:06.191Z,10.60
2018-04-10T06:23:33.656Z,10.10
2018-04-10T06:26:01.095Z,10.47
2018-04-10T06:28:28.538Z,10.00
2018-04-10T06:30:56.735Z,9.80
2018-04-10T06:33:24.184Z,11.90
2018-04-10T06:35:51.637Z,11.20
2018-04-10T06:38:21.384Z,10.15
2018-04-10T06:40:50.197Z,11.60
2018-04-10T06:43:18.419Z,11.73
2018-04-10T06:45:45.871Z,10.43
2018-04-10T06:48:13.333Z,12.10
2018-04-10T06:50:40.781Z,10.70
2018-04-10T06:53:09.005Z,11.03
2018-04-10T06:55:36.451Z,11.90
2018-04-10T06:58:03.895Z,11.80
2018-04-10T07:00:32.397Z,11.83
2018-04-10T07:02:59.843Z,12.50
2018-04-10T07:05:27.271Z,8.67
2018-04-10T07:07:54.756Z,10.97
2018-04-10T07:10:22.184Z,10.30
2018-04-10T07:12:50.391Z,10.80
2018-04-10T07:15:17.835Z,11.70
2018-04-10T07:17:45.290Z,12.03
2018-04-10T07:20:12.738Z,10.30
2018-04-10T07:22:40.177Z,11.07
2018-04-10T07:25:08.403Z,11.53
2018-04-10T07:27:35.857Z,10.97
2018-04-10T07:30:03.412Z,10.83
2018-04-10T07:32:30.838Z,10.00
2018-04-10T07:34:58.294Z,10.50
2018-04-10T07:37:25.734Z,9.53
2018-04-10T07:39:53.950Z,9.30
2018-04-10T07:42:21.403Z,8.10
2018-04-10T07:44:52.346Z,9.63
2018-04-10T07:47:19.776Z,8.43
2018-04-10T07:49:47.218Z,8.70
2018-04-10T07:52:15.432Z,11.10
2018-04-10T07:54:42.886Z,8.73
2018-04-10T07:57:10.345Z,8.50
2018-04-10T07:59:37.787Z,8.90
2018-04-10T08:02:05.238Z,8.10
2018-04-10T08:04:33.459Z,8.00
2018-04-10T08:07:00.894Z,7.20
2018-04-10T08:09:28.351Z,8.30
2018-04-10T08:11:55.800Z,7.97
2018-04-10T08:14:23.262Z,7.90
2018-04-10T08:16:50.720Z,7.50
2018-04-10T08:19:18.159Z,7.65
2018-04-10T08:21:45.603Z,8.23
2018-04-10T08:24:13.827Z,9.17
2018-04-10T08:26:41.268Z,8.00
2018-04-10T08:29:08.718Z,7.07
2018-04-10T08:31:36.151Z,8.47
2018-04-10T08:34:04.379Z,8.47
2018-04-10T08:36:31.836Z,7.50
2018-04-10T08:38:59.272Z,8.77
2018-04-10T08:41:26.714Z,7.82
2018-04-10T08:43:54.147Z,7.17
2018-04-10T08:46:22.371Z,7.50
2018-04-10T08:48:49.815Z,7.10
2018-04-10T08:51:17.257Z,7.70
2018-04-10T08:53:44.706Z,7.90
2018-04-10T08:56:12.139Z,7.80
2018-04-10T08:58:39.572Z,8.23
2018-04-10T09:01:07.419Z,7.23
2018-04-10T09:03:34.859Z,6.43
2018-04-10T09:06:02.307Z,7.33
2018-04-10T09:08:29.742Z,7.63
2018-04-10T09:10:57.963Z,6.97
2018-04-10T09:13:25.397Z,7.57
2018-04-10T09:15:52.832Z,5.05
2018-04-10T09:18:21.091Z,5.13
2018-04-10T09:20:49.439Z,5.90
2018-04-10T09:23:16.872Z,5.33
2018-04-10T09:25:44.308Z,6.10
2018-04-10T09:28:12.520Z,4.77
2018-04-10T09:30:39.965Z,5.60
2018-04-10T09:33:07.396Z,5.40
2018-04-10T09:35:34.844Z,5.20
2018-04-10T09:38:03.056Z,5.40
2018-04-10T09:40:30.502Z,5.10
2018-04-10T09:42:57.930Z,5.67
2018-04-10T09:45:26.129Z,5.33
2018-04-10T09:47:53.563Z,5.07
2018-04-10T09:50:21.772Z,4.93
2018-04-10T09:52:49.210Z,4.93
2018-04-10T09:55:17.410Z,4.43
2018-04-10T09:57:44.837Z,5.30
2018-04-10T10:00:12.290Z,4.60
2018-04-10T10:02:40.494Z,4.60
2018-04-10T10:05:08.206Z,4.60
2018-04-10T10:07:35.670Z,5.50
2018-04-10T10:10:03.520Z,4.53
2018-04-10T10:12:30.963Z,4.87
2018-04-10T10:14:58.410Z,4.70
2018-04-10T10:17:25.853Z,4.10
2018-04-10T10:19:53.282Z,5.20
2018-04-10T10:22:21.495Z,4.00
2018-04-10T10:24:48.926Z,4.47
2018-04-10T10:27:16.376Z,4.20
2018-04-10T10:29:43.831Z,4.00
2018-04-10T10:32:12.969Z,3.90
2018-04-10T10:34:40.407Z,4.63
2018-04-10T10:37:07.854Z,5.50
2018-04-10T10:39:35.294Z,4.23
2018-04-10T10:42:09.767Z,5.47
2018-04-10T10:44:37.203Z,5.30
2018-04-10T10:47:04.665Z,6.20
2018-04-10T10:49:32.103Z,5.70
2018-04-10T10:51:59.558Z,5.50
2018-04-10T10:54:27.032Z,5.47
2018-04-10T10:56:54.481Z,5.10
2018-04-10T10:59:21.950Z,6.07
2018-04-10T11:01:49.383Z,5.53
2018-04-10T11:04:16.883Z,5.20
2018-04-10T11:06:44.347Z,6.32
2018-04-10T11:09:11.799Z,6.97
2018-04-10T11:11:39.247Z,6.97
2018-04-10T11:14:06.703Z,6.30
2018-04-10T11:16:34.141Z,6.80
2018-04-10T11:19:01.599Z,8.17
2018-04-10T11:21:29.029Z,6.30
2018-04-10T11:23:57.240Z,6.83
2018-04-10T11:26:24.675Z,8.83
2018-04-10T11:28:52.128Z,7.72
2018-04-10T11:31:19.572Z,8.87
2018-04-10T11:33:47.775Z,7.93
2018-04-10T11:36:15.217Z,7.80
2018-04-10T11:38:43.578Z,8.10
2018-04-10T11:41:11.778Z,7.40
2018-04-10T11:43:39.219Z,8.90
2018-04-10T11:46:07.435Z,7.30
2018-04-10T11:48:34.894Z,10.03
2018-04-10T11:51:02.335Z,7.72
2018-04-10T11:53:29.782Z,9.87
2018-04-10T11:55:57.218Z,7.50
2018-04-10T11:58:25.415Z,7.50
2018-04-10T12:00:54.405Z,7.70
2018-04-10T12:03:21.842Z,8.33
2018-04-10T12:05:50.064Z,9.77
2018-04-10T12:08:17.523Z,9.80
2018-04-10T12:10:44.997Z,7.87
2018-04-10T12:13:12.423Z,8.23
2018-04-10T12:15:39.872Z,7.97
2018-04-10T12:18:07.290Z,9.57
2018-04-10T12:20:34.754Z,9.50
2018-04-10T12:23:02.971Z,10.07
2018-04-10T12:25:30.420Z,9.53
2018-04-10T12:27:57.860Z,10.20
2018-04-10T12:30:25.557Z,9.87
2018-04-10T12:32:52.987Z,10.10
2018-04-10T12:35:20.906Z,9.25
2018-04-10T12:37:48.342Z,11.43
2018-04-10T12:40:15.789Z,11.50
2018-04-10T12:42:43.245Z,11.37
2018-04-10T12:45:10.679Z,11.95
2018-04-10T12:47:38.124Z,12.20
2018-04-10T12:50:06.339Z,11.83
2018-04-10T12:52:33.778Z,11.37
2018-04-10T12:55:01.230Z,10.07
2018-04-10T12:57:28.674Z,12.50
2018-04-10T12:59:56.897Z,14.47
2018-04-10T13:02:24.339Z,12.60
2018-04-10T13:04:51.798Z,10.80
2018-04-10T13:07:19.239Z,10.20
2018-04-10T13:09:46.691Z,10.97
2018-04-10T13:12:14.194Z,11.33
2018-04-10T13:14:41.642Z,10.57
2018-04-10T13:17:09.088Z,12.27
2018-04-10T13:19:36.536Z,10.20
2018-04-10T13:22:03.967Z,9.93
2018-04-10T13:24:31.410Z,10.37
2018-04-10T13:26:59.617Z,11.40
2018-04-10T13:29:27.099Z,14.37
2018-04-10T13:31:54.532Z,12.57
2018-04-10T13:34:22.004Z,12.67
2018-04-10T13:36:49.459Z,10.07
2018-04-10T13:39:16.900Z,9.97
2018-04-10T13:41:44.340Z,10.80
2018-04-10T13:44:11.777Z,11.83
2018-04-10T13:46:39.239Z,10.40
2018-04-10T13:49:07.463Z,10.97
2018-04-10T13:51:34.910Z,8.70
2018-04-10T13:54:02.359Z,10.30
2018-04-10T13:56:29.831Z,10.83
2018-04-10T13:58:57.275Z,9.57
2018-04-10T14:01:24.727Z,9.03
2018-04-10T14:03:54.460Z,10.23
2018-04-10T14:06:21.895Z,9.20
2018-04-10T14:08:49.331Z,10.10
2018-04-10T14:11:17.583Z,10.70
2018-04-10T14:13:45.028Z,10.63
2018-04-10T14:16:12.499Z,9.88
2018-04-10T14:18:39.966Z,10.37
2018-04-10T14:21:08.200Z,10.13
2018-04-10T14:23:35.654Z,11.68
2018-04-10T14:26:05.372Z,10.93
2018-04-10T14:28:32.833Z,11.03
2018-04-10T14:31:00.280Z,11.50
2018-04-10T14:33:27.725Z,11.40
2018-04-10T14:35:55.189Z,12.47
2018-04-10T14:38:22.626Z,11.03
2018-04-10T14:40:50.074Z,11.40
2018-04-10T14:43:18.283Z,11.93
2018-04-10T14:45:45.721Z,11.00
2018-04-10T14:48:13.162Z,7.90
2018-04-10T14:50:41.363Z,6.03
2018-04-10T14:53:08.816Z,5.30
2018-04-10T14:55:36.244Z,4.60
2018-04-10T14:58:04.470Z,4.70
2018-04-10T15:00:31.924Z,4.03
2018-04-10T15:02:59.367Z,2.93
2018-04-10T15:05:26.878Z,4.80
2018-04-10T15:07:55.220Z,3.57
2018-04-10T15:10:22.645Z,3.47
2018-04-10T15:12:50.088Z,3.67
2018-04-10T15:15:18.304Z,4.27
2018-04-10T15:17:45.767Z,3.67
2018-04-10T15:20:13.208Z,2.80
2018-04-10T15:22:40.657Z,3.25
2018-04-10T15:25:08.074Z,3.00
2018-04-10T15:27:36.281Z,3.20
2018-04-10T15:30:03.714Z,3.10
2018-04-10T15:32:31.939Z,2.87
2018-04-10T15:34:59.376Z,3.00
2018-04-10T15:37:26.848Z,2.70
2018-04-10T15:39:54.272Z,3.13
2018-04-10T15:42:21.722Z,3.30
2018-04-10T15:44:49.936Z,2.30
2018-04-10T15:47:17.413Z,2.70
2018-04-10T15:49:44.845Z,3.10
2018-04-10T15:52:12.284Z,2.63
2018-04-10T15:54:40.504Z,2.47
2018-04-10T15:57:07.935Z,2.70
2018-04-10T15:59:35.380Z,2.60
2018-04-10T16:02:02.812Z,2.60
2018-04-10T16:04:31.009Z,2.87
2018-04-10T16:06:58.466Z,2.70
2018-04-10T16:09:25.903Z,2.80
2018-04-10T16:11:54.112Z,2.93
2018-04-10T16:14:21.546Z,2.70
2018-04-10T16:16:48.995Z,3.00
2018-04-10T16:19:17.207Z,3.58
2018-04-10T16:21:44.642Z,2.77
2018-04-10T16:24:12.093Z,3.23
2018-04-10T16:26:39.513Z,2.90
2018-04-10T16:29:06.960Z,3.23
2018-04-10T16:31:34.393Z,2.60
2018-04-10T16:34:01.840Z,2.77
2018-04-10T16:36:29.291Z,2.47
2018-04-10T16:38:56.742Z,2.80
2018-04-10T16:41:24.179Z,2.40
2018-04-10T16:43:51.621Z,1.97
2018-04-10T16:46:19.826Z,2.10
2018-04-10T16:48:48.080Z,2.27
2018-04-10T16:51:16.287Z,1.57
2018-04-10T16:53:43.770Z,1.77
2018-04-10T16:56:11.204Z,1.87
2018-04-10T16:58:38.642Z,1.97
2018-04-10T17:01:06.064Z,2.70
2018-04-10T17:03:33.542Z,10.40
2018-04-10T17:06:01.750Z,2.67
2018-04-10T17:08:29.184Z,1.53
2018-04-10T17:10:57.386Z,1.53
2018-04-10T17:13:24.823Z,1.60
2018-04-10T17:15:52.283Z,1.63
2018-04-10T17:18:20.507Z,1.40
2018-04-10T17:20:47.960Z,1.60
2018-04-10T17:23:16.159Z,1.70
2018-04-10T17:25:43.604Z,1.50
2018-04-10T17:28:11.039Z,1.60
2018-04-10T17:30:38.487Z,1.77
2018-04-10T17:33:05.952Z,1.80
2018-04-10T17:35:33.536Z,1.40
2018-04-10T17:38:00.986Z,1.80
2018-04-10T17:40:28.441Z,1.40
2018-04-10T17:42:55.877Z,1.50
2018-04-10T17:45:23.358Z,2.57
2018-04-10T17:47:50.819Z,2.03
2018-04-10T17:50:18.276Z,1.50
2018-04-10T17:52:46.491Z,2.00
2018-04-10T17:55:13.938Z,2.53
2018-04-10T17:57:42.141Z,2.80
2018-04-10T18:00:09.618Z,2.37
2018-04-10T18:02:37.054Z,1.97
2018-04-10T18:05:05.547Z,1.83
2018-04-10T18:07:32.998Z,2.00
2018-04-10T18:10:00.487Z,2.50
2018-04-10T18:12:27.922Z,2.10
2018-04-10T18:14:55.363Z,1.10
2018-04-10T18:17:22.877Z,1.53
2018-04-10T18:19:50.306Z,1.33
2018-04-10T18:22:17.787Z,1.67
2018-04-10T18:24:45.210Z,2.40
2018-04-10T18:27:12.680Z,2.30
2018-04-10T18:29:40.113Z,1.40
2018-04-10T18:32:07.561Z,1.50
2018-04-10T18:34:35.009Z,1.37
2018-04-10T18:37:02.467Z,1.30
2018-04-10T18:39:29.924Z,1.30
2018-04-10T18:41:57.378Z,1.30
2018-04-10T18:44:24.830Z,1.17
2018-04-10T18:46:53.069Z,1.90
2018-04-10T18:49:20.518Z,1.47
2018-04-10T18:51:47.958Z,1.40
2018-04-10T18:54:15.600Z,1.50
2018-04-10T18:56:44.904Z,1.30
2018-04-10T18:59:12.339Z,1.20
2018-04-10T19:01:39.794Z,1.77
2018-04-10T19:04:07.993Z,1.40
2018-04-10T19:06:35.498Z,1.30
2018-04-10T19:09:02.931Z,1.20
2018-04-10T19:11:30.399Z,1.23
2018-04-10T19:13:57.842Z,1.40
2018-04-10T19:16:25.306Z,1.63
2018-04-10T19:18:52.771Z,2.20
2018-04-10T19:21:20.211Z,2.40
2018-04-10T19:23:47.682Z,2.23
2018-04-10T19:26:15.118Z,3.20
2018-04-10T19:28:42.659Z,3.80
2018-04-10T19:31:10.155Z,3.23
2018-04-10T19:33:37.638Z,8.93
2018-04-10T19:36:05.082Z,5.90
2018-04-10T19:38:33.347Z,3.00
2018-04-10T19:41:00.793Z,2.17
2018-04-10T19:43:28.259Z,1.70
2018-04-10T19:45:55.702Z,1.83
2018-04-10T19:48:23.282Z,1.60
2018-04-10T19:50:50.845Z,1.50
2018-04-10T19:53:18.346Z,1.30
2018-04-10T19:55:45.809Z,1.30
2018-04-10T19:58:13.276Z,1.10
2018-04-10T20:00:40.775Z,1.00
2018-04-10T20:03:08.193Z,2.20
2018-04-10T20:05:35.675Z,2.30
2018-04-10T20:08:03.134Z,3.03
2018-04-10T20:10:30.578Z,2.70
2018-04-10T20:12:58.034Z,2.40
2018-04-10T20:15:25.495Z,2.50
2018-04-10T20:17:52.950Z,3.17
2018-04-10T20:20:20.394Z,2.93
2018-04-10T20:22:47.831Z,1.80
2018-04-10T20:25:15.267Z,2.20
2018-04-10T20:27:43.483Z,2.00
2018-04-10T20:30:10.907Z,2.30
2018-04-10T20:32:39.102Z,2.10
2018-04-10T20:35:07.491Z,2.60
2018-04-10T20:37:34.927Z,2.70
2018-04-10T20:40:02.358Z,3.07
2018-04-10T20:42:29.794Z,2.57
2018-04-10T20:44:57.234Z,2.53
2018-04-10T20:47:24.698Z,2.13
2018-04-10T20:49:52.141Z,1.60
2018-04-10T20:52:19.579Z,1.40
2018-04-10T20:54:47.034Z,1.90
2018-04-10T20:57:14.458Z,1.77
2018-04-10T20:59:41.902Z,1.47
2018-04-10T21:02:09.342Z,1.67
2018-04-10T21:04:36.793Z,1.30
2018-04-10T21:07:04.234Z,1.55
2018-04-10T21:09:31.684Z,1.75
2018-04-10T21:11:59.123Z,1.60
2018-04-10T21:14:27.351Z,2.13
2018-04-10T21:16:54.766Z,1.20
2018-04-10T21:19:23.369Z,1.77
2018-04-10T21:21:50.795Z,1.70
2018-04-10T21:24:19.028Z,1.40
2018-04-10T21:26:46.471Z,1.50
2018-04-10T21:29:13.925Z,1.90
2018-04-10T21:31:41.360Z,1.70
2018-04-10T21:34:08.856Z,1.47
2018-04-10T21:36:36.279Z,2.13
2018-04-10T21:39:03.731Z,1.70
2018-04-10T21:41:31.183Z,1.60
2018-04-10T21:43:58.612Z,2.43
2018-04-10T21:46:26.836Z,2.27
2018-04-10T21:48:54.291Z,2.10
2018-04-10T21:51:21.725Z,1.77
2018-04-10T21:53:49.211Z,2.10
2018-04-10T21:56:16.649Z,1.80
2018-04-10T21:58:44.131Z,2.17
2018-04-10T22:01:11.639Z,2.20
2018-04-10T22:03:39.835Z,1.90
2018-04-10T22:06:07.286Z,2.00
2018-04-10T22:08:35.466Z,1.83
2018-04-10T22:11:02.914Z,1.90
2018-04-10T22:13:30.350Z,1.50
2018-04-10T22:15:58.558Z,1.97
2018-04-10T22:18:25.986Z,1.70
2018-04-10T22:20:54.218Z,1.53
2018-04-10T22:23:21.666Z,1.80
2018-04-10T22:25:49.098Z,1.50
2018-04-10T22:28:16.528Z,1.60
2018-04-10T22:30:44.728Z,1.63
2018-04-10T22:33:12.125Z,2.30
2018-04-10T22:35:39.574Z,1.93
2018-04-10T22:38:07.015Z,1.90
2018-04-10T22:40:34.472Z,1.63
2018-04-10T22:43:01.894Z,2.00
2018-04-10T22:45:29.354Z,2.23
2018-04-10T22:47:56.798Z,2.03
2018-04-10T22:50:24.223Z,2.10
2018-04-10T22:52:52.440Z,2.20
2018-04-10T22:55:19.877Z,1.90
2018-04-10T22:57:48.077Z,2.00
2018-04-10T23:00:24.111Z,1.83
2018-04-10T23:02:52.320Z,2.00
2018-04-10T23:05:20.733Z,2.60
2018-04-10T23:07:48.172Z,2.30
2018-04-10T23:10:15.596Z,2.30
2018-04-10T23:12:43.040Z,2.53
2018-04-10T23:15:11.251Z,2.30
2018-04-10T23:17:38.707Z,2.47
2018-04-10T23:20:06.145Z,2.70
2018-04-10T23:22:34.354Z,2.27
2018-04-10T23:25:01.825Z,2.70
2018-04-10T23:27:29.250Z,2.30
2018-04-10T23:29:56.677Z,2.50
2018-04-10T23:32:25.318Z,2.57
2018-04-10T23:34:52.745Z,3.40
2018-04-10T23:37:20.944Z,3.10
2018-04-10T23:39:48.364Z,2.80
2018-04-10T23:42:16.685Z,2.80
2018-04-10T23:44:44.114Z,2.60
2018-04-10T23:47:12.335Z,2.47
2018-04-10T23:49:39.774Z,3.20
2018-04-10T23:52:07.211Z,2.73
2018-04-10T23:54:34.647Z,3.13
2018-04-10T23:57:02.859Z,3.13
2018-04-10T23:59:30.288Z,3.50
